Time;durP1;ratioP1;P1;durP2;ratioP2;P2;SDS_P1;SDS_P2;PMS_P1;PMS_P2;Temp;Humidity;BMP_temperature;BMP_pressure;BME280_temperature;BME280_humidity;BME280_pressure;Samples;Min_cycle;Max_cycle;Signal;HPM_P1;HPM_P2
2022/04/15 00:02:31;;;;;;;51.38;27.88;;;14.90;84.50;;;;;;5044890;28;20229;-62
2022/04/15 00:05:40;;;;;;;50.22;27.63;;;14.90;84.60;;;;;;5056831;28;20225;-60
2022/04/15 00:08:29;;;;;;;52.72;30.95;;;14.80;85.20;;;;;;5052220;28;20244;-61
2022/04/15 00:11:17;;;;;;;52.90;29.90;;;14.80;85.70;;;;;;5049848;28;20228;-61
2022/04/15 00:14:06;;;;;;;53.58;30.95;;;14.70;86.50;;;;;;5055586;28;20231;-61
2022/04/15 00:16:57;;;;;;;54.97;30.95;;;14.60;87.90;;;;;;5058683;28;20232;-63
2022/04/15 00:19:46;;;;;;;53.42;30.40;;;14.60;87.90;;;;;;5055486;28;20216;-62
2022/04/15 00:22:35;;;;;;;52.30;30.88;;;14.50;89.90;;;;;;5046617;28;20983;-62
2022/04/15 00:25:24;;;;;;;49.83;29.45;;;14.50;88.80;;;;;;5053019;28;20236;-62
2022/04/15 00:28:14;;;;;;;48.33;30.70;;;14.50;88.80;;;;;;5054288;28;20239;-62
2022/04/15 00:31:03;;;;;;;50.42;30.25;;;14.40;88.10;;;;;;5049879;28;20343;-62
2022/04/15 00:33:56;;;;;;;49.45;29.95;;;14.30;87.20;;;;;;5050040;28;20232;-60
2022/04/15 00:36:45;;;;;;;45.55;27.48;;;14.20;87.40;;;;;;5051512;28;20216;-62
2022/04/15 00:39:45;;;;;;;45.30;26.92;;;14.10;87.30;;;;;;5052532;28;20278;-62
2022/04/15 00:42:33;;;;;;;46.50;27.30;;;14.10;86.90;;;;;;5052282;28;20232;-62
2022/04/15 00:45:22;;;;;;;45.03;27.42;;;14.00;87.30;;;;;;5061868;28;20237;-64
2022/04/15 00:48:13;;;;;;;43.40;26.92;;;13.80;87.20;;;;;;5049345;28;20226;-64
2022/04/15 00:51:04;;;;;;;42.55;26.05;;;13.90;87.30;;;;;;5056397;28;20212;-63
2022/04/15 00:53:56;;;;;;;40.40;26.08;;;13.90;87.10;;;;;;5050522;28;20217;-64
2022/04/15 00:56:45;;;;;;;46.33;25.92;;;13.80;87.50;;;;;;5049784;28;20221;-64
2022/04/15 00:59:35;;;;;;;41.25;26.17;;;13.80;87.90;;;;;;5047214;28;20235;-65
2022/04/15 01:02:26;;;;;;;44.95;26.05;;;13.80;89.20;;;;;;5047003;28;20245;-65
2022/04/15 01:05:16;;;;;;;41.10;25.45;;;13.70;90.30;;;;;;5053331;28;20224;-64
2022/04/15 01:08:09;;;;;;;42.50;25.13;;;13.60;90.90;;;;;;5046679;28;20606;-64
2022/04/15 01:11:01;;;;;;;36.88;24.42;;;13.70;91.10;;;;;;5046536;28;20711;-63
2022/04/15 01:13:51;;;;;;;33.38;23.90;;;13.70;91.60;;;;;;5048995;28;20248;-63
2022/04/15 01:16:40;;;;;;;36.05;23.92;;;13.60;92.40;;;;;;5048382;28;20327;-64
2022/04/15 01:19:30;;;;;;;34.50;23.35;;;13.40;93.60;;;;;;5060865;28;20704;-64
2022/04/15 01:22:23;;;;;;;39.20;23.73;;;13.20;95.00;;;;;;5051630;28;20671;-64
2022/04/15 01:25:15;;;;;;;35.33;22.38;;;13.30;96.00;;;;;;5052876;28;20208;-64
2022/04/15 01:28:04;;;;;;;35.13;23.10;;;13.30;96.90;;;;;;5047569;28;20232;-64
2022/04/15 01:30:53;;;;;;;34.03;22.50;;;13.50;97.30;;;;;;5051108;28;20224;-64
2022/04/15 01:33:42;;;;;;;34.60;22.20;;;13.30;98.30;;;;;;5048578;28;20217;-64
2022/04/15 01:36:30;;;;;;;35.88;22.02;;;13.20;99.90;;;;;;5048143;28;20331;-64
2022/04/15 01:39:19;;;;;;;35.75;22.50;;;13.10;99.90;;;;;;5054475;28;20369;-63
2022/04/15 01:42:13;;;;;;;31.25;21.83;;;13.30;99.90;;;;;;5049994;28;20251;-64
2022/04/15 01:45:02;;;;;;;37.42;22.90;;;13.40;99.90;;;;;;5049279;28;20223;-64
2022/04/15 01:47:52;;;;;;;35.70;22.02;;;13.30;99.90;;;;;;5065087;28;20231;-64
2022/04/15 01:50:40;;;;;;;32.47;21.58;;;13.50;99.90;;;;;;5055384;28;20227;-65
2022/04/15 01:53:29;;;;;;;31.55;20.08;;;13.30;99.90;;;;;;5046169;28;20221;-63
2022/04/15 01:56:17;;;;;;;28.73;20.77;;;13.10;99.90;;;;;;5055532;28;20228;-65
2022/04/15 01:59:11;;;;;;;31.73;20.73;;;13.00;99.90;;;;;;5049952;28;20220;-63
2022/04/15 02:01:59;;;;;;;28.90;20.77;;;12.90;99.90;;;;;;5049220;28;20627;-65
2022/04/15 02:04:48;;;;;;;29.33;20.70;;;12.90;99.90;;;;;;5055177;28;20224;-65
2022/04/15 02:07:37;;;;;;;32.80;21.85;;;12.80;99.90;;;;;;5051469;28;20224;-64
2022/04/15 02:10:26;;;;;;;27.83;20.70;;;12.90;99.90;;;;;;5075679;28;20287;-65
2022/04/15 02:13:18;;;;;;;27.95;20.50;;;12.80;99.90;;;;;;5050718;28;20232;-64
2022/04/15 02:16:08;;;;;;;28.58;20.40;;;12.70;99.90;;;;;;5045595;28;20972;-63
2022/04/15 02:19:01;;;;;;;30.30;20.17;;;12.90;99.90;;;;;;5046066;28;20377;-65
2022/04/15 02:21:50;;;;;;;26.60;20.30;;;12.90;99.90;;;;;;5042369;28;20233;-65
2022/04/15 02:24:39;;;;;;;28.13;20.48;;;12.90;99.90;;;;;;5049645;28;20742;-64
2022/04/15 02:27:28;;;;;;;30.40;20.65;;;13.10;99.90;;;;;;5055914;28;20216;-63
2022/04/15 02:30:16;;;;;;;24.65;19.13;;;13.00;99.90;;;;;;5054715;28;20225;-64
2022/04/15 02:33:07;;;;;;;27.27;19.27;;;13.00;99.90;;;;;;5053605;28;20715;-65
2022/04/15 02:35:55;;;;;;;27.30;19.77;;;13.00;99.90;;;;;;5053028;28;20220;-64
2022/04/15 02:38:45;;;;;;;26.90;19.42;;;13.00;99.90;;;;;;5051338;28;20225;-63
2022/04/15 02:41:34;;;;;;;25.98;19.20;;;13.00;99.90;;;;;;5047953;28;20350;-65
2022/04/15 02:44:22;;;;;;;28.10;19.60;;;13.00;99.90;;;;;;5054500;28;20229;-64
2022/04/15 02:47:11;;;;;;;31.27;19.67;;;12.90;99.90;;;;;;5051741;28;20217;-64
2022/04/15 02:50:02;;;;;;;27.70;20.00;;;13.00;99.90;;;;;;5054978;28;20228;-64
2022/04/15 02:52:51;;;;;;;29.25;20.83;;;13.00;99.90;;;;;;5052448;28;20237;-65
2022/04/15 02:55:40;;;;;;;27.40;21.02;;;13.10;99.90;;;;;;5050274;28;20664;-62
2022/04/15 02:58:28;;;;;;;30.38;21.08;;;13.10;99.90;;;;;;5056656;28;20216;-63
2022/04/15 03:01:17;;;;;;;31.38;21.02;;;13.20;99.90;;;;;;5054397;28;20233;-63
2022/04/15 03:04:05;;;;;;;28.98;21.75;;;13.10;99.90;;;;;;5050148;28;20224;-64
2022/04/15 03:06:55;;;;;;;30.17;21.35;;;13.00;99.90;;;;;;5049618;28;20220;-64
2022/04/15 03:09:44;;;;;;;30.13;20.45;;;13.00;99.90;;;;;;5056353;28;20215;-64
2022/04/15 03:12:35;;;;;;;29.45;20.48;;;13.00;99.90;;;;;;5048754;28;20239;-65
2022/04/15 03:15:23;;;;;;;26.80;20.88;;;13.10;99.90;;;;;;5051374;28;20295;-65
2022/04/15 03:18:12;;;;;;;24.98;18.70;;;13.00;99.90;;;;;;5054755;28;20765;-65
2022/04/15 03:21:00;;;;;;;25.60;18.67;;;12.90;99.90;;;;;;5050966;28;20228;-65
2022/04/15 03:23:50;;;;;;;31.08;19.30;;;12.90;99.90;;;;;;5054501;28;20213;-65
2022/04/15 03:26:39;;;;;;;26.90;18.92;;;13.00;99.90;;;;;;5050387;28;20220;-63
2022/04/15 03:29:27;;;;;;;27.23;19.40;;;13.00;99.90;;;;;;5052958;28;20217;-64
2022/04/15 03:32:16;;;;;;;26.80;20.08;;;13.10;99.90;;;;;;5053005;28;20321;-63
2022/04/15 03:35:06;;;;;;;28.75;20.17;;;13.00;99.90;;;;;;5030459;28;20282;-64
2022/04/15 03:37:54;;;;;;;26.77;20.02;;;12.80;99.90;;;;;;5049437;28;20252;-64
2022/04/15 03:40:44;;;;;;;27.38;20.55;;;13.00;99.90;;;;;;5041085;28;20224;-66
2022/04/15 03:43:33;;;;;;;27.25;20.73;;;13.00;99.90;;;;;;5038310;28;20730;-66
2022/04/15 03:46:22;;;;;;;34.53;22.15;;;13.10;99.90;;;;;;5036723;28;20225;-65
2022/04/15 03:49:12;;;;;;;30.63;22.88;;;13.20;99.90;;;;;;5045104;28;20220;-63
2022/04/15 03:52:01;;;;;;;32.28;23.27;;;13.10;99.90;;;;;;5038475;28;20236;-64
2022/04/15 03:54:50;;;;;;;32.97;21.42;;;13.10;99.90;;;;;;5046262;28;20246;-64
2022/04/15 03:57:44;;;;;;;28.70;22.23;;;13.00;99.90;;;;;;5050844;28;20600;-65
2022/04/15 04:00:32;;;;;;;28.10;21.65;;;12.80;99.90;;;;;;5035959;28;20265;-64
2022/04/15 04:03:23;;;;;;;31.25;22.13;;;13.00;99.90;;;;;;5046230;28;20228;-65
2022/04/15 04:06:12;;;;;;;31.60;21.55;;;12.90;99.90;;;;;;5040629;28;20218;-63
2022/04/15 04:09:00;;;;;;;26.20;19.30;;;13.00;99.90;;;;;;5053940;28;20224;-62
2022/04/15 04:11:49;;;;;;;30.15;19.98;;;12.90;99.90;;;;;;5052506;28;20248;-62
2022/04/15 04:14:39;;;;;;;26.88;20.52;;;13.00;99.90;;;;;;5043887;28;20224;-60
2022/04/15 04:17:28;;;;;;;29.02;20.45;;;13.10;99.90;;;;;;5049072;28;20567;-64
2022/04/15 04:20:17;;;;;;;27.77;20.25;;;13.00;99.90;;;;;;5052713;28;20224;-62
2022/04/15 04:23:06;;;;;;;28.65;19.90;;;13.00;99.90;;;;;;5056009;28;20217;-62
2022/04/15 04:25:55;;;;;;;24.25;19.48;;;12.90;99.90;;;;;;5053319;28;20228;-63
2022/04/15 04:28:43;;;;;;;28.17;20.52;;;12.80;99.90;;;;;;5042693;28;20216;-63
2022/04/15 04:31:33;;;;;;;28.75;20.17;;;13.00;99.90;;;;;;5049648;28;20220;-64
2022/04/15 04:34:22;;;;;;;24.88;19.38;;;13.00;99.90;;;;;;5053735;28;20386;-63
2022/04/15 04:37:11;;;;;;;25.52;19.52;;;12.90;99.90;;;;;;5037974;28;20239;-63
2022/04/15 04:40:00;;;;;;;27.55;19.35;;;12.90;99.90;;;;;;5069660;28;20232;-63
2022/04/15 04:42:51;;;;;;;27.67;19.42;;;12.80;99.90;;;;;;5051944;28;20227;-63
2022/04/15 04:45:39;;;;;;;25.75;18.67;;;13.00;99.90;;;;;;5058889;28;20212;-62
2022/04/15 04:48:30;;;;;;;25.13;19.33;;;12.80;99.90;;;;;;5039654;28;20837;-65
2022/04/15 04:51:19;;;;;;;28.80;20.30;;;12.90;99.90;;;;;;5039261;28;21200;-60
2022/04/15 04:54:08;;;;;;;30.60;18.65;;;13.00;99.90;;;;;;5043095;28;20225;-64
2022/04/15 04:56:57;;;;;;;25.08;18.75;;;13.00;99.90;;;;;;5049626;28;21280;-64
2022/04/15 04:59:46;;;;;;;24.67;19.13;;;12.90;99.90;;;;;;5055962;28;20213;-63
2022/04/15 05:02:35;;;;;;;32.10;18.73;;;13.00;99.90;;;;;;5021930;28;20305;-64
2022/04/15 05:05:25;;;;;;;27.75;17.77;;;13.10;99.90;;;;;;5017848;28;20220;-63
2022/04/15 05:08:14;;;;;;;24.85;16.40;;;13.10;99.90;;;;;;5030814;28;20366;-64
2022/04/15 05:11:03;;;;;;;24.95;17.35;;;13.10;99.90;;;;;;5039912;28;20231;-64
2022/04/15 05:13:52;;;;;;;27.23;17.38;;;12.90;99.90;;;;;;5032979;28;20225;-62
2022/04/15 05:16:40;;;;;;;22.92;16.92;;;13.00;99.90;;;;;;5035475;28;20343;-64
2022/04/15 05:19:29;;;;;;;26.55;17.90;;;13.00;99.90;;;;;;5036147;28;20225;-65
2022/04/15 05:22:21;;;;;;;22.60;16.92;;;13.00;99.90;;;;;;5035987;28;20255;-63
2022/04/15 05:25:10;;;;;;;22.60;16.77;;;13.10;99.90;;;;;;5047026;28;20220;-64
2022/04/15 05:27:59;;;;;;;27.52;16.98;;;13.10;99.90;;;;;;5039889;28;20228;-62
2022/04/15 05:30:51;;;;;;;30.35;18.35;;;13.00;99.90;;;;;;5049226;28;20221;-64
2022/04/15 05:33:40;;;;;;;43.47;22.50;;;13.10;99.90;;;;;;5050622;28;20745;-64
2022/04/15 05:36:29;;;;;;;27.70;17.88;;;13.10;99.90;;;;;;5052238;28;20228;-64
2022/04/15 05:39:19;;;;;;;26.30;18.80;;;13.20;99.90;;;;;;5047808;28;20224;-66
2022/04/15 05:42:09;;;;;;;27.17;18.45;;;12.90;99.90;;;;;;5030315;28;20225;-66
2022/04/15 05:44:57;;;;;;;25.85;18.42;;;12.80;99.90;;;;;;5030699;28;20231;-66
2022/04/15 05:47:46;;;;;;;30.10;18.58;;;12.60;99.90;;;;;;5021528;28;20225;-62
2022/04/15 05:50:35;;;;;;;26.08;18.55;;;12.60;99.90;;;;;;5049856;28;20220;-63
2022/04/15 05:53:24;;;;;;;26.38;19.15;;;12.70;99.90;;;;;;5048342;28;20236;-65
2022/04/15 05:56:14;;;;;;;30.20;18.75;;;12.50;99.90;;;;;;5071791;28;20220;-62
2022/04/15 05:59:03;;;;;;;28.92;19.58;;;12.50;99.90;;;;;;5049356;28;20232;-61
2022/04/15 06:01:55;;;;;;;37.33;18.88;;;12.50;99.90;;;;;;5051541;28;20229;-63
2022/04/15 06:04:44;;;;;;;26.75;19.83;;;12.40;99.90;;;;;;5058211;28;20231;-61
2022/04/15 06:07:33;;;;;;;30.67;21.20;;;12.30;99.90;;;;;;5056362;28;20306;-64
2022/04/15 06:10:21;;;;;;;28.92;19.83;;;12.20;99.90;;;;;;5050899;28;20323;-64
2022/04/15 06:13:14;;;;;;;37.00;22.13;;;12.10;99.90;;;;;;5055397;28;20735;-64
2022/04/15 06:16:05;;;;;;;30.38;21.52;;;12.00;99.90;;;;;;5070472;28;20695;-61
2022/04/15 06:18:53;;;;;;;29.10;21.00;;;12.00;99.90;;;;;;5060828;28;20217;-63
2022/04/15 06:22:02;;;;;;;31.35;21.98;;;11.90;99.90;;;;;;5046861;28;20240;-62
2022/04/15 06:24:51;;;;;;;34.88;21.77;;;11.70;99.90;;;;;;5032573;28;20332;-62
2022/04/15 06:27:39;;;;;;;38.53;24.05;;;11.80;99.90;;;;;;5039680;28;20213;-62
2022/04/15 06:30:33;;;;;;;32.13;21.83;;;11.90;99.90;;;;;;5032656;28;20237;-61
2022/04/15 06:33:22;;;;;;;27.85;21.88;;;12.00;99.90;;;;;;5032433;28;20238;-63
2022/04/15 06:36:10;;;;;;;36.85;22.63;;;11.80;99.90;;;;;;5035485;28;20235;-64
2022/04/15 06:38:59;;;;;;;31.73;23.00;;;11.80;99.90;;;;;;5038624;28;20810;-62
2022/04/15 06:41:48;;;;;;;36.63;23.10;;;11.80;99.90;;;;;;5040173;28;20236;-63
2022/04/15 06:44:41;;;;;;;35.72;24.00;;;11.70;99.90;;;;;;5034030;28;20224;-62
2022/04/15 06:47:31;;;;;;;26.17;21.67;;;11.80;99.90;;;;;;5033375;28;20753;-61
2022/04/15 06:50:20;;;;;;;37.45;22.20;;;11.70;99.90;;;;;;5032123;28;20308;-61
2022/04/15 06:53:09;;;;;;;31.45;20.02;;;11.70;99.90;;;;;;5045546;28;20244;-62
2022/04/15 06:55:57;;;;;;;28.60;21.42;;;11.80;99.90;;;;;;5052177;28;20216;-61
2022/04/15 06:58:46;;;;;;;32.78;22.95;;;11.90;99.90;;;;;;5043597;28;20591;-61
2022/04/15 07:01:35;;;;;;;33.13;22.08;;;12.00;99.90;;;;;;5057879;28;20227;-63
2022/04/15 07:04:26;;;;;;;42.78;27.20;;;11.80;99.90;;;;;;5036834;28;20212;-67
2022/04/15 07:07:15;;;;;;;32.47;22.75;;;12.00;99.90;;;;;;5053623;28;20221;-64
2022/04/15 07:10:04;;;;;;;31.20;22.70;;;12.00;99.90;;;;;;5052584;28;20409;-64
2022/04/15 07:12:53;;;;;;;34.58;24.27;;;12.00;99.90;;;;;;5040681;28;20220;-63
2022/04/15 07:15:41;;;;;;;34.50;23.13;;;12.00;99.90;;;;;;5056982;28;20221;-64
2022/04/15 07:18:30;;;;;;;33.55;22.45;;;12.10;99.90;;;;;;5053594;28;20216;-62
2022/04/15 07:21:21;;;;;;;30.45;23.27;;;12.10;99.90;;;;;;5034344;28;20247;-62
2022/04/15 07:24:14;;;;;;;35.20;24.40;;;12.20;99.90;;;;;;5039818;28;20213;-60
2022/04/15 07:27:04;;;;;;;31.45;23.45;;;12.20;99.90;;;;;;5049550;28;20235;-62
2022/04/15 07:29:53;;;;;;;33.92;24.45;;;12.30;99.90;;;;;;5049959;28;20641;-63
2022/04/15 07:32:42;;;;;;;36.55;26.20;;;12.20;99.90;;;;;;5040065;28;20245;-61
2022/04/15 07:35:31;;;;;;;31.20;24.48;;;12.10;99.90;;;;;;5047400;28;20233;-62
2022/04/15 07:38:22;;;;;;;35.55;25.27;;;12.10;99.90;;;;;;5053098;28;20228;-62
2022/04/15 07:41:11;;;;;;;33.83;25.30;;;12.10;99.90;;;;;;5052763;28;20253;-61
2022/04/15 07:44:00;;;;;;;33.58;24.73;;;12.10;99.90;;;;;;5051876;28;20228;-61
2022/04/15 07:46:50;;;;;;;35.65;25.52;;;12.20;99.90;;;;;;5049734;28;20683;-62
2022/04/15 07:49:38;;;;;;;35.20;25.73;;;12.40;99.90;;;;;;5049708;28;20614;-60
2022/04/15 07:52:27;;;;;;;34.00;24.58;;;12.20;99.90;;;;;;5069332;28;20243;-61
2022/04/15 07:55:20;;;;;;;36.08;25.50;;;12.40;99.90;;;;;;5052786;28;20220;-62
2022/04/15 07:58:09;;;;;;;28.02;22.55;;;12.50;99.90;;;;;;5054993;28;20223;-61
2022/04/15 08:00:59;;;;;;;29.25;22.65;;;12.50;99.90;;;;;;5054799;28;20224;-60
2022/04/15 08:03:49;;;;;;;29.02;23.13;;;12.70;99.90;;;;;;5065670;28;20686;-60
2022/04/15 08:06:37;;;;;;;32.63;23.17;;;13.20;99.90;;;;;;5054170;28;20217;-62
2022/04/15 08:09:26;;;;;;;31.38;21.70;;;14.10;99.90;;;;;;5053250;28;20389;-61
2022/04/15 08:12:16;;;;;;;25.05;19.67;;;14.70;99.90;;;;;;5053018;28;20239;-65
2022/04/15 08:15:06;;;;;;;24.92;20.02;;;14.60;99.90;;;;;;5033405;28;20332;-62
2022/04/15 08:17:55;;;;;;;21.45;18.10;;;15.50;99.90;;;;;;5029069;28;20269;-62
2022/04/15 08:20:43;;;;;;;20.80;17.20;;;15.20;99.90;;;;;;5016907;28;20447;-62
2022/04/15 08:23:32;;;;;;;22.58;18.60;;;15.00;99.90;;;;;;5043837;28;20213;-62
2022/04/15 08:26:21;;;;;;;21.40;16.70;;;15.20;99.90;;;;;;5028967;28;20592;-61
2022/04/15 08:29:15;;;;;;;20.48;14.82;;;14.70;99.90;;;;;;5041529;28;20358;-60
2022/04/15 08:32:04;;;;;;;20.80;15.90;;;14.30;99.90;;;;;;5031272;28;20221;-62
2022/04/15 08:34:53;;;;;;;23.15;17.65;;;14.20;99.90;;;;;;5042855;28;20221;-61
2022/04/15 08:37:42;;;;;;;23.77;18.38;;;14.10;99.90;;;;;;5034611;28;20315;-62
2022/04/15 08:40:32;;;;;;;23.60;19.38;;;14.00;99.90;;;;;;5037891;28;20228;-62
2022/04/15 08:43:21;;;;;;;22.55;18.25;;;14.10;99.90;;;;;;5053068;28;20230;-69
2022/04/15 08:46:13;;;;;;;21.63;17.60;;;14.20;99.90;;;;;;5051596;28;20253;-62
2022/04/15 08:49:03;;;;;;;21.20;17.63;;;14.10;99.90;;;;;;5054294;28;20224;-65
2022/04/15 08:51:52;;;;;;;20.83;17.25;;;14.00;99.90;;;;;;5051753;28;20298;-63
2022/04/15 08:54:41;;;;;;;23.80;17.95;;;13.90;99.90;;;;;;5051288;28;20233;-64
2022/04/15 08:57:30;;;;;;;21.85;17.38;;;13.90;99.90;;;;;;5042810;28;20288;-63
2022/04/15 09:00:20;;;;;;;25.45;18.50;;;13.80;99.90;;;;;;5045838;28;20927;-64
2022/04/15 09:03:10;;;;;;;25.58;19.55;;;13.90;99.90;;;;;;5056862;28;20224;-65
2022/04/15 09:05:59;;;;;;;30.08;21.83;;;14.00;99.90;;;;;;5057246;28;20646;-64
2022/04/15 09:09:06;;;;;;;27.40;21.63;;;14.00;99.90;;;;;;5044244;28;20257;-63
2022/04/15 09:11:56;;;;;;;30.00;23.00;;;14.10;99.90;;;;;;5044845;28;20745;-65
2022/04/15 09:14:46;;;;;;;31.85;23.80;;;14.10;99.90;;;;;;5047494;28;20680;-64
2022/04/15 09:17:54;;;;;;;32.13;23.75;;;14.30;99.90;;;;;;5047292;28;20599;-64
2022/04/15 09:20:45;;;;;;;30.42;22.77;;;14.30;99.90;;;;;;5046125;28;20933;-62
2022/04/15 09:23:36;;;;;;;31.48;22.73;;;14.40;99.90;;;;;;5042880;28;20397;-64
2022/04/15 09:26:25;;;;;;;28.38;21.98;;;14.50;99.90;;;;;;5047963;28;20228;-64
2022/04/15 09:29:15;;;;;;;28.70;20.85;;;14.60;99.90;;;;;;5046270;28;20224;-63
2022/04/15 09:32:08;;;;;;;26.27;19.65;;;15.40;99.90;;;;;;5047712;28;20217;-61
2022/04/15 09:34:58;;;;;;;26.92;19.52;;;15.80;99.90;;;;;;5048578;28;20224;-62
2022/04/15 09:37:48;;;;;;;22.70;17.02;;;15.90;99.90;;;;;;5056458;28;20223;-64
2022/04/15 09:40:37;;;;;;;18.15;14.02;;;15.30;99.90;;;;;;5056410;28;20228;-60
2022/04/15 09:43:26;;;;;;;14.75;11.95;;;14.90;99.90;;;;;;5079687;28;20236;-67
2022/04/15 09:46:15;;;;;;;15.90;12.40;;;14.50;99.90;;;;;;5057905;28;20224;-62
2022/04/15 09:49:06;;;;;;;18.38;14.15;;;14.30;99.90;;;;;;5056509;28;20239;-62
2022/04/15 09:51:56;;;;;;;21.67;13.90;;;14.60;99.90;;;;;;5054432;28;20220;-62
2022/04/15 09:54:48;;;;;;;23.10;15.23;;;14.30;99.90;;;;;;5027650;28;20253;-62
2022/04/15 09:57:37;;;;;;;21.95;15.30;;;14.40;99.90;;;;;;5048270;28;20764;-63
2022/04/15 10:00:25;;;;;;;21.85;15.50;;;14.70;99.90;;;;;;5049178;28;20229;-61
2022/04/15 10:03:19;;;;;;;22.48;16.30;;;14.50;99.90;;;;;;5050109;28;20596;-62
2022/04/15 10:06:09;;;;;;;17.95;13.32;;;14.40;99.90;;;;;;5035052;28;20229;-63
2022/04/15 10:09:18;;;;;;;16.30;12.90;;;14.30;99.90;;;;;;5032251;28;21385;-61
2022/04/15 10:12:09;;;;;;;15.50;11.57;;;14.10;99.90;;;;;;5018862;28;20226;-63
2022/04/15 10:15:02;;;;;;;16.25;12.05;;;14.20;99.90;;;;;;5047646;28;20231;-63
2022/04/15 10:17:52;;;;;;;15.68;11.93;;;14.00;99.90;;;;;;5048191;28;20816;-61
2022/04/15 10:20:42;;;;;;;15.55;11.48;;;13.90;99.90;;;;;;5053271;28;20220;-62
2022/04/15 10:23:31;;;;;;;19.27;12.80;;;13.90;99.90;;;;;;5051060;28;20581;-61
2022/04/15 10:26:21;;;;;;;15.65;12.30;;;13.90;99.90;;;;;;5058213;28;20367;-62
2022/04/15 10:29:14;;;;;;;19.85;13.57;;;13.70;99.90;;;;;;5045103;28;20231;-62
2022/04/15 10:32:13;;;;;;;19.17;14.75;;;13.90;99.90;;;;;;5050330;28;20299;-60
2022/04/15 10:35:19;;;;;;;21.13;14.60;;;14.00;99.90;;;;;;5050094;28;20693;-61
2022/04/15 10:38:14;;;;;;;21.55;14.90;;;14.10;99.90;;;;;;5039291;28;20698;-62
2022/04/15 10:41:14;;;;;;;22.60;16.15;;;14.00;99.90;;;;;;5048677;28;20225;-62
2022/04/15 10:44:05;;;;;;;27.38;17.75;;;13.90;99.90;;;;;;5038753;28;20700;-60
2022/04/15 10:47:04;;;;;;;26.77;18.67;;;13.70;99.90;;;;;;5027589;28;20596;-62
2022/04/15 10:49:55;;;;;;;29.48;19.65;;;13.80;99.90;;;;;;5051675;28;20227;-62
2022/04/15 10:52:43;;;;;;;25.35;18.60;;;14.00;99.90;;;;;;5058450;28;20212;-60
2022/04/15 10:55:42;;;;;;;30.27;19.98;;;13.90;99.90;;;;;;5049777;28;20225;-63
2022/04/15 10:58:31;;;;;;;29.05;19.98;;;14.00;99.90;;;;;;5059503;28;20216;-63
2022/04/15 11:01:19;;;;;;;31.88;21.08;;;14.20;99.90;;;;;;5048915;28;20909;-62
2022/04/15 11:04:10;;;;;;;30.15;20.75;;;14.40;99.90;;;;;;5079036;28;20699;-62
2022/04/15 11:06:59;;;;;;;29.52;20.80;;;14.70;99.90;;;;;;5051495;28;20231;-62
2022/04/15 11:09:48;;;;;;;30.20;21.35;;;15.00;99.90;;;;;;5057054;28;20596;-61
2022/04/15 11:12:44;;;;;;;30.10;22.33;;;15.10;99.90;;;;;;5055440;28;20228;-62
2022/04/15 11:15:57;;;;;;;28.33;20.77;;;15.40;99.90;;;;;;5051565;28;20221;-62
2022/04/15 11:18:47;;;;;;;29.80;21.15;;;15.80;99.90;;;;;;5087496;27;20224;-61
2022/04/15 11:21:40;;;;;;;28.63;20.88;;;16.00;99.90;;;;;;5080249;27;20235;-63
2022/04/15 11:24:32;;;;;;;26.98;20.27;;;16.00;99.90;;;;;;5079246;28;20341;-62
2022/04/15 11:27:23;;;;;;;26.83;19.90;;;16.50;99.90;;;;;;5046640;28;20707;-62
2022/04/15 11:30:13;;;;;;;25.77;19.10;;;16.00;99.90;;;;;;5053681;28;20223;-63
2022/04/15 11:33:05;;;;;;;23.60;17.60;;;16.00;99.90;;;;;;5054409;28;20217;-62
2022/04/15 11:35:56;;;;;;;24.13;18.10;;;15.90;99.90;;;;;;5083024;28;20224;-62
2022/04/15 11:38:48;;;;;;;23.63;18.50;;;15.80;99.90;;;;;;5056019;28;20354;-63
2022/04/15 11:41:41;;;;;;;22.20;16.75;;;15.90;99.90;;;;;;5055769;28;21021;-63
2022/04/15 11:44:31;;;;;;;23.27;17.38;;;15.80;99.90;;;;;;5069003;28;20292;-61
2022/04/15 11:47:21;;;;;;;24.60;16.60;;;15.70;99.90;;;;;;5056737;28;20234;-63
2022/04/15 11:50:10;;;;;;;22.58;16.92;;;15.70;99.90;;;;;;5049616;28;20224;-64
2022/04/15 11:53:06;;;;;;;27.70;17.98;;;15.50;99.90;;;;;;5053088;28;20576;-63
2022/04/15 11:56:02;;;;;;;26.38;18.25;;;15.30;99.90;;;;;;5060102;28;20220;-62
2022/04/15 11:58:51;;;;;;;22.13;16.27;;;15.40;99.90;;;;;;5052844;28;20941;-63
2022/04/15 12:01:40;;;;;;;22.20;16.67;;;15.40;99.90;;;;;;5054473;28;20976;-64
2022/04/15 12:04:29;;;;;;;21.27;16.30;;;15.50;99.90;;;;;;5044836;28;20224;-62
2022/04/15 12:07:20;;;;;;;20.48;16.77;;;15.50;99.90;;;;;;5051614;28;20313;-62
2022/04/15 12:10:12;;;;;;;21.45;16.70;;;15.50;99.90;;;;;;5030054;28;20707;-64
2022/04/15 12:13:02;;;;;;;21.40;16.15;;;15.50;99.90;;;;;;5028220;28;20218;-64
2022/04/15 12:15:51;;;;;;;20.17;15.20;;;15.40;99.90;;;;;;5032023;28;20272;-63
2022/04/15 12:18:40;;;;;;;22.92;16.30;;;15.60;99.90;;;;;;5034866;28;20240;-64
2022/04/15 12:21:34;;;;;;;21.25;15.98;;;15.80;99.90;;;;;;5030564;28;20221;-63
2022/04/15 12:24:24;;;;;;;21.45;16.17;;;16.10;99.90;;;;;;5032171;28;20232;-64
2022/04/15 12:27:16;;;;;;;23.88;15.80;;;16.00;99.90;;;;;;5029312;28;20221;-63
2022/04/15 12:30:07;;;;;;;19.85;15.35;;;16.30;99.90;;;;;;5029514;28;20217;-64
2022/04/15 12:33:07;;;;;;;21.27;14.82;;;16.20;99.90;;;;;;5028449;28;20324;-63
2022/04/15 12:36:02;;;;;;;20.30;15.73;;;16.20;99.90;;;;;;5038441;28;20237;-64
2022/04/15 12:39:05;;;;;;;21.10;15.05;;;16.00;99.90;;;;;;5028688;28;20240;-65
2022/04/15 12:41:54;;;;;;;18.75;15.10;;;16.20;99.90;;;;;;5036343;28;20249;-62
2022/04/15 12:44:53;;;;;;;22.70;15.35;;;16.20;99.90;;;;;;5027112;28;21059;-64
2022/04/15 12:47:45;;;;;;;17.73;13.77;;;16.30;99.90;;;;;;5028184;28;20217;-64
2022/04/15 14:24:54;;;;;;;16.55;10.88;;;13.10;99.90;;;;;;5035545;27;20623;-62
2022/04/15 14:27:43;;;;;;;18.27;10.50;;;13.00;99.90;;;;;;5048999;28;20236;-63
2022/04/15 14:30:32;;;;;;;13.55;10.05;;;13.20;99.90;;;;;;5053106;28;20216;-62
2022/04/15 14:33:23;;;;;;;16.65;10.50;;;13.30;99.90;;;;;;5049744;28;20224;-63
2022/04/15 14:36:12;;;;;;;18.20;11.13;;;13.70;99.90;;;;;;5079554;28;20223;-62
2022/04/15 14:39:01;;;;;;;13.63;10.48;;;13.80;99.90;;;;;;5054891;28;20231;-62
2022/04/15 14:41:59;;;;;;;14.95;10.68;;;14.00;99.90;;;;;;5047694;28;20595;-64
2022/04/15 14:44:48;;;;;;;14.55;10.30;;;14.00;99.90;;;;;;5055286;28;20223;-63
2022/04/15 14:47:37;;;;;;;16.92;10.60;;;14.10;99.90;;;;;;5053182;28;20223;-64
2022/04/15 14:50:26;;;;;;;13.90;10.63;;;14.00;99.90;;;;;;5050936;28;21080;-63
2022/04/15 14:53:19;;;;;;;13.68;10.35;;;14.00;99.90;;;;;;5069097;28;20216;-63
2022/04/15 14:56:08;;;;;;;16.42;11.68;;;14.10;99.90;;;;;;5044284;28;20560;-63
2022/04/15 14:58:59;;;;;;;18.88;11.68;;;14.00;99.90;;;;;;5046945;28;20231;-63
2022/04/15 15:01:47;;;;;;;16.08;12.48;;;13.90;99.90;;;;;;5052228;28;20225;-63
2022/04/15 15:04:36;;;;;;;18.75;11.88;;;13.80;99.90;;;;;;5057754;28;20222;-63
2022/04/15 15:07:38;;;;;;;19.42;12.45;;;13.70;99.90;;;;;;5070939;28;20356;-62
2022/04/15 15:10:27;;;;;;;19.15;13.43;;;13.80;99.90;;;;;;5051392;28;20217;-64
2022/04/15 15:13:20;;;;;;;23.02;15.05;;;14.00;99.90;;;;;;5048943;28;20294;-64
2022/04/15 15:16:11;;;;;;;19.65;15.13;;;13.90;99.90;;;;;;5048457;28;20933;-63
2022/04/15 15:18:59;;;;;;;19.58;15.93;;;13.70;99.90;;;;;;5041809;28;20708;-63
2022/04/15 15:21:48;;;;;;;22.58;16.13;;;13.70;99.90;;;;;;5046071;28;20229;-65
2022/04/15 15:30:49;;;;;;;24.00;18.08;;;13.70;99.90;;;;;;5048427;28;20227;-62
2022/04/15 15:33:39;;;;;;;24.92;18.92;;;13.70;99.90;;;;;;5046337;28;20220;-63
2022/04/15 15:36:28;;;;;;;23.00;18.55;;;13.80;99.90;;;;;;5037213;28;20220;-63
2022/04/15 15:39:16;;;;;;;24.38;19.27;;;13.70;99.90;;;;;;5036349;28;20213;-62
2022/04/15 15:42:06;;;;;;;28.55;19.02;;;13.60;99.90;;;;;;5038814;28;20248;-63
2022/04/15 15:44:55;;;;;;;24.05;18.30;;;13.60;99.90;;;;;;5047378;28;20229;-64
2022/04/15 15:47:43;;;;;;;18.58;14.40;;;13.60;99.90;;;;;;5037221;28;20236;-64
2022/04/15 15:50:38;;;;;;;20.25;15.40;;;13.40;99.90;;;;;;5035371;28;20229;-64
2022/04/15 15:53:26;;;;;;;18.67;12.73;;;13.30;99.90;;;;;;5033818;28;20225;-63
2022/04/15 15:56:15;;;;;;;17.38;11.32;;;13.10;99.90;;;;;;5052157;28;20224;-63
2022/04/15 15:59:05;;;;;;;16.05;11.63;;;13.00;99.90;;;;;;5056458;28;20292;-62
2022/04/15 16:01:58;;;;;;;15.52;11.15;;;13.00;99.90;;;;;;5057355;28;20224;-61
2022/04/15 16:04:47;;;;;;;14.18;9.45;;;12.60;99.90;;;;;;5059843;28;20225;-61
2022/04/15 16:07:37;;;;;;;15.13;11.02;;;12.40;99.90;;;;;;5058508;28;20227;-64